createdAt,value
2023-02-11T00:00:46.532Z,3.78
2023-02-11T00:01:46.538Z,3.78
2023-02-11T00:02:48.011Z,3.76
2023-02-11T00:03:46.597Z,3.75
2023-02-11T00:04:46.511Z,3.75
2023-02-11T00:05:46.469Z,3.75
2023-02-11T00:06:46.517Z,3.75
2023-02-11T00:07:46.477Z,3.75
2023-02-11T00:08:46.465Z,3.73
2023-02-11T00:09:46.499Z,3.72
2023-02-11T00:10:46.420Z,3.75
2023-02-11T00:11:46.488Z,3.76
2023-02-11T00:12:46.553Z,3.80
2023-02-11T00:13:46.398Z,3.80
2023-02-11T00:14:46.438Z,3.83
2023-02-11T00:15:46.378Z,3.83
2023-02-11T00:16:46.506Z,3.83
2023-02-11T00:17:46.390Z,3.84
2023-02-11T00:18:46.349Z,3.83
2023-02-11T00:19:46.329Z,3.83
2023-02-11T00:20:46.357Z,3.83
2023-02-11T00:21:46.323Z,3.83
2023-02-11T00:22:46.301Z,3.84
2023-02-11T00:23:46.363Z,3.87
2023-02-11T00:24:46.283Z,3.83
2023-02-11T00:25:46.288Z,3.83
2023-02-11T00:26:46.272Z,3.84
2023-02-11T00:27:46.250Z,3.83
2023-02-11T00:28:46.319Z,3.84
2023-02-11T00:29:46.260Z,3.83
2023-02-11T00:30:46.363Z,3.83
2023-02-11T00:31:46.376Z,3.83
2023-02-11T00:32:46.218Z,3.86
2023-02-11T00:33:46.208Z,3.86
2023-02-11T00:34:46.207Z,3.86
2023-02-11T00:35:46.186Z,3.88
2023-02-11T00:36:46.167Z,3.87
2023-02-11T00:37:46.168Z,3.90
2023-02-11T00:38:46.166Z,3.93
2023-02-11T00:39:46.157Z,3.94
2023-02-11T00:40:46.149Z,3.97
2023-02-11T00:41:46.151Z,3.96
2023-02-11T00:42:46.102Z,3.96
2023-02-11T00:43:46.106Z,3.98
2023-02-11T00:44:46.102Z,4.02
2023-02-11T00:45:46.095Z,4.02
2023-02-11T00:46:46.065Z,4.02
2023-02-11T00:47:46.132Z,4.04
2023-02-11T00:48:46.029Z,4.04
2023-02-11T00:49:46.136Z,4.05
2023-02-11T00:50:46.046Z,4.06
2023-02-11T00:51:45.996Z,4.05
2023-02-11T00:52:46.007Z,4.06
2023-02-11T00:53:46.053Z,4.05
2023-02-11T00:54:46.011Z,4.04
2023-02-11T00:55:45.959Z,4.05
2023-02-11T00:56:45.935Z,4.06
2023-02-11T00:57:45.937Z,4.06
2023-02-11T00:58:46.062Z,4.09
2023-02-11T00:59:45.920Z,4.08
2023-02-11T01:00:45.916Z,4.11
2023-02-11T01:01:45.955Z,4.12
2023-02-11T01:02:45.948Z,4.16
2023-02-11T01:03:45.888Z,4.15
2023-02-11T01:04:45.905Z,4.18
2023-02-11T01:05:45.875Z,4.18
2023-02-11T01:06:45.860Z,4.23
2023-02-11T01:07:45.878Z,4.22
2023-02-11T01:08:45.860Z,4.23
2023-02-11T01:09:45.813Z,4.26
2023-02-11T01:10:45.803Z,4.26
2023-02-11T01:11:45.789Z,4.29
2023-02-11T01:12:45.838Z,4.26
2023-02-11T01:13:45.774Z,4.26
2023-02-11T01:14:45.855Z,4.27
2023-02-11T01:15:45.753Z,4.29
2023-02-11T01:16:45.813Z,4.26
2023-02-11T01:17:45.754Z,4.29
2023-02-11T01:18:45.817Z,4.30
2023-02-11T01:19:45.716Z,4.29
2023-02-11T01:20:45.695Z,4.29
2023-02-11T01:21:45.696Z,4.29
2023-02-11T01:22:45.692Z,4.30
2023-02-11T01:23:45.700Z,4.29
2023-02-11T01:24:45.693Z,4.27
2023-02-11T01:25:45.653Z,4.27
2023-02-11T01:26:45.667Z,4.26
2023-02-11T01:27:45.646Z,4.24
2023-02-11T01:28:45.636Z,4.23
2023-02-11T01:29:45.606Z,4.24
2023-02-11T01:30:45.675Z,4.29
2023-02-11T01:31:45.644Z,4.26
2023-02-11T01:32:45.586Z,4.27
2023-02-11T01:33:45.589Z,4.24
2023-02-11T01:34:45.548Z,4.27
2023-02-11T01:35:45.582Z,4.29
2023-02-11T01:36:45.560Z,4.29
2023-02-11T01:37:45.533Z,4.27
2023-02-11T01:38:45.663Z,4.30
2023-02-11T01:39:45.530Z,4.29
2023-02-11T01:40:45.518Z,4.32
2023-02-11T01:41:45.501Z,4.30
2023-02-11T01:42:45.500Z,4.32
2023-02-11T01:43:45.666Z,4.29
2023-02-11T01:44:45.448Z,4.29
2023-02-11T01:45:45.516Z,4.32
2023-02-11T01:46:45.507Z,4.32
2023-02-11T01:47:45.431Z,4.30
2023-02-11T01:48:45.420Z,4.33
2023-02-11T01:49:45.413Z,4.33
2023-02-11T01:50:45.432Z,4.33
2023-02-11T01:51:45.379Z,4.33
2023-02-11T01:52:45.369Z,4.33
2023-02-11T01:53:45.398Z,4.34
2023-02-11T01:54:45.364Z,4.34
2023-02-11T01:55:45.360Z,4.36
2023-02-11T01:56:45.332Z,4.36
2023-02-11T01:57:45.322Z,4.36
2023-02-11T01:58:45.321Z,4.37
2023-02-11T01:59:45.339Z,4.41
2023-02-11T02:00:45.331Z,4.41
2023-02-11T02:01:45.402Z,4.42
2023-02-11T02:02:45.288Z,4.44
2023-02-11T02:03:45.287Z,4.41
2023-02-11T02:04:45.254Z,4.45
2023-02-11T02:05:45.253Z,4.45
2023-02-11T02:06:45.302Z,4.48
2023-02-11T02:07:45.222Z,4.50
2023-02-11T02:08:45.202Z,4.52
2023-02-11T02:09:45.202Z,4.54
2023-02-11T02:10:45.182Z,4.55
2023-02-11T02:11:45.188Z,4.58
2023-02-11T02:12:45.163Z,4.60
2023-02-11T02:13:45.169Z,4.58
2023-02-11T02:14:45.181Z,4.60
2023-02-11T02:15:45.149Z,4.62
2023-02-11T02:16:45.143Z,4.63
2023-02-11T02:17:45.125Z,4.65
2023-02-11T02:18:45.102Z,4.67
2023-02-11T02:19:45.120Z,4.67
2023-02-11T02:20:45.117Z,4.69
2023-02-11T02:21:45.107Z,4.69
2023-02-11T02:22:45.070Z,4.70
2023-02-11T02:23:45.065Z,4.70
2023-02-11T02:24:45.059Z,4.72
2023-02-11T02:25:45.043Z,4.73
2023-02-11T02:26:45.140Z,4.75
2023-02-11T02:27:45.010Z,4.77
2023-02-11T02:28:45.028Z,4.77
2023-02-11T02:29:45.317Z,4.77
2023-02-11T02:30:45.037Z,4.82
2023-02-11T02:31:45.084Z,4.82
2023-02-11T02:32:44.966Z,4.80
2023-02-11T02:33:44.996Z,4.82
2023-02-11T02:34:44.953Z,4.84
2023-02-11T02:35:44.950Z,4.84
2023-02-11T02:36:44.940Z,4.84
2023-02-11T02:37:44.913Z,4.85
2023-02-11T02:38:44.924Z,4.84
2023-02-11T02:39:44.901Z,4.85
2023-02-11T02:40:44.875Z,4.86
2023-02-11T02:41:44.888Z,4.88
2023-02-11T02:42:44.881Z,4.86
2023-02-11T02:43:44.900Z,4.88
2023-02-11T02:44:44.881Z,4.89
2023-02-11T02:45:44.844Z,4.89
2023-02-11T02:46:44.881Z,4.94
2023-02-11T02:47:44.828Z,4.91
2023-02-11T02:48:44.850Z,4.91
2023-02-11T02:49:44.823Z,4.92
2023-02-11T02:50:44.787Z,4.94
2023-02-11T02:51:44.781Z,4.96
2023-02-11T02:52:44.784Z,4.94
2023-02-11T02:53:44.774Z,4.94
2023-02-11T02:54:44.762Z,4.96
2023-02-11T02:55:44.734Z,4.97
2023-02-11T02:56:44.727Z,4.97
2023-02-11T02:57:44.706Z,4.99
2023-02-11T02:58:47.091Z,5.02
2023-02-11T02:59:44.695Z,5.02
2023-02-11T03:00:44.729Z,5.02
2023-02-11T03:01:44.683Z,5.03
2023-02-11T03:02:44.675Z,5.04
2023-02-11T03:03:44.733Z,5.03
2023-02-11T03:04:44.726Z,5.03
2023-02-11T03:05:44.655Z,5.06
2023-02-11T03:06:44.635Z,5.09
2023-02-11T03:07:44.648Z,5.09
2023-02-11T03:08:44.761Z,5.07
2023-02-11T03:09:44.650Z,5.07
2023-02-11T03:10:44.629Z,5.10
2023-02-11T03:11:44.605Z,5.09
2023-02-11T03:12:44.586Z,5.07
2023-02-11T03:13:44.570Z,5.10
2023-02-11T03:14:44.577Z,5.10
2023-02-11T03:15:44.556Z,5.10
2023-02-11T03:16:44.537Z,5.12
2023-02-11T03:17:44.520Z,5.13
2023-02-11T03:18:44.517Z,5.13
2023-02-11T03:19:44.516Z,5.13
2023-02-11T03:20:44.499Z,5.17
2023-02-11T03:21:44.504Z,5.17
2023-02-11T03:22:44.488Z,5.17
2023-02-11T03:23:44.473Z,5.17
2023-02-11T03:24:44.475Z,5.15
2023-02-11T03:25:44.469Z,5.15
2023-02-11T03:26:44.425Z,5.17
2023-02-11T03:27:44.429Z,5.17
2023-02-11T03:28:44.411Z,5.15
2023-02-11T03:29:44.420Z,5.17
2023-02-11T03:30:44.501Z,5.20
2023-02-11T03:31:44.463Z,5.18
2023-02-11T03:32:44.387Z,5.18
2023-02-11T03:33:44.391Z,5.18
2023-02-11T03:34:44.360Z,5.20
2023-02-11T03:35:44.345Z,5.21
2023-02-11T03:36:44.322Z,5.20
2023-02-11T03:37:44.323Z,5.22
2023-02-11T03:38:44.336Z,5.22
2023-02-11T03:39:44.318Z,5.22
2023-02-11T03:40:44.289Z,5.22
2023-02-11T03:41:44.291Z,5.22
2023-02-11T03:42:44.309Z,5.24
2023-02-11T03:43:44.270Z,5.24
2023-02-11T03:44:44.328Z,5.24
2023-02-11T03:45:44.294Z,5.24
2023-02-11T03:46:44.215Z,5.24
2023-02-11T03:47:44.222Z,5.22
2023-02-11T03:48:44.231Z,5.24
2023-02-11T03:49:44.216Z,5.27
2023-02-11T03:50:44.204Z,5.27
2023-02-11T03:51:44.183Z,5.25
2023-02-11T03:52:44.174Z,5.25
2023-02-11T03:53:44.155Z,5.25
2023-02-11T03:54:44.164Z,5.27
2023-02-11T03:55:44.139Z,5.25
2023-02-11T03:56:44.133Z,5.27
2023-02-11T03:57:44.130Z,5.25
2023-02-11T03:58:44.115Z,5.25
2023-02-11T03:59:44.105Z,5.27
2023-02-11T04:00:44.089Z,5.25
2023-02-11T04:01:44.083Z,5.27
2023-02-11T04:02:44.164Z,5.25
2023-02-11T04:03:44.047Z,5.27
2023-02-11T04:04:44.066Z,5.25
2023-02-11T04:05:44.032Z,5.25
2023-02-11T04:06:44.024Z,5.27
2023-02-11T04:07:44.047Z,5.25
2023-02-11T04:08:43.996Z,5.25
2023-02-11T04:09:44.019Z,5.25
2023-02-11T04:10:43.994Z,5.28
2023-02-11T04:11:43.989Z,5.28
2023-02-11T04:12:43.974Z,5.27
2023-02-11T04:13:43.956Z,5.28
2023-02-11T04:14:43.970Z,5.27
2023-02-11T04:15:43.954Z,5.30
2023-02-11T04:16:43.943Z,5.28
2023-02-11T04:17:43.944Z,5.30
2023-02-11T04:18:43.906Z,5.31
2023-02-11T04:19:43.889Z,5.33
2023-02-11T04:20:43.867Z,5.30
2023-02-11T04:21:43.902Z,5.33
2023-02-11T04:22:43.870Z,5.33
2023-02-11T04:23:43.871Z,5.33
2023-02-11T04:24:43.893Z,5.31
2023-02-11T04:25:43.827Z,5.33
2023-02-11T04:26:43.835Z,5.36
2023-02-11T04:27:43.843Z,5.36
2023-02-11T04:28:43.798Z,5.33
2023-02-11T04:29:43.811Z,5.36
2023-02-11T04:30:43.864Z,5.35
2023-02-11T04:31:43.830Z,5.36
2023-02-11T04:32:43.790Z,5.35
2023-02-11T04:33:43.769Z,5.36
2023-02-11T04:34:43.760Z,5.36
2023-02-11T04:35:43.740Z,5.38
2023-02-11T04:36:43.747Z,5.36
2023-02-11T04:37:43.730Z,5.36
2023-02-11T04:38:43.702Z,5.38
2023-02-11T04:39:43.697Z,5.38
2023-02-11T04:40:43.758Z,5.38
2023-02-11T04:41:43.688Z,5.36
2023-02-11T04:42:43.670Z,5.36
2023-02-11T04:43:43.672Z,5.36
2023-02-11T04:44:43.651Z,5.36
2023-02-11T04:45:43.692Z,5.39
2023-02-11T04:46:43.658Z,5.36
2023-02-11T04:47:43.623Z,5.36
2023-02-11T04:48:43.618Z,5.38
2023-02-11T04:49:43.664Z,5.36
2023-02-11T04:50:43.644Z,5.35
2023-02-11T04:51:43.592Z,5.36
2023-02-11T04:52:43.576Z,5.36
2023-02-11T04:53:43.563Z,5.36
2023-02-11T04:54:43.544Z,5.35
2023-02-11T04:55:43.552Z,5.36
2023-02-11T04:56:43.545Z,5.35
2023-02-11T04:57:43.524Z,5.33
2023-02-11T04:58:43.510Z,5.35
2023-02-11T04:59:43.509Z,5.35
2023-02-11T05:00:43.508Z,5.33
2023-02-11T05:01:43.473Z,5.33
2023-02-11T05:02:43.467Z,5.35
2023-02-11T05:03:43.493Z,5.31
2023-02-11T05:04:43.475Z,5.33
2023-02-11T05:05:43.456Z,5.31
2023-02-11T05:06:43.414Z,5.31
2023-02-11T05:07:43.433Z,5.31
2023-02-11T05:08:43.417Z,5.33
2023-02-11T05:09:43.396Z,5.30
2023-02-11T05:10:43.407Z,5.31
2023-02-11T05:11:43.497Z,5.31
2023-02-11T05:12:43.354Z,5.33
2023-02-11T05:13:43.383Z,5.31
2023-02-11T05:14:43.373Z,5.31
2023-02-11T05:15:43.367Z,5.33
2023-02-11T05:16:43.424Z,5.33
2023-02-11T05:17:43.315Z,5.33
2023-02-11T05:18:43.313Z,5.33
2023-02-11T05:19:43.306Z,5.31
2023-02-11T05:20:43.315Z,5.31
2023-02-11T05:21:56.685Z,5.31
2023-02-11T05:22:44.259Z,5.35
2023-02-11T05:23:43.248Z,5.33
2023-02-11T05:24:43.243Z,5.31
2023-02-11T05:25:43.259Z,5.31
2023-02-11T05:26:43.224Z,5.33
2023-02-11T05:27:43.213Z,5.33
2023-02-11T05:28:43.194Z,5.36
2023-02-11T05:29:43.209Z,5.35
2023-02-11T05:30:43.224Z,5.35
2023-02-11T05:31:43.187Z,5.36
2023-02-11T05:32:43.166Z,5.38
2023-02-11T05:33:43.198Z,5.36
2023-02-11T05:34:43.166Z,5.36
2023-02-11T05:35:43.158Z,5.39
2023-02-11T05:36:43.134Z,5.38
2023-02-11T05:37:43.127Z,5.36
2023-02-11T05:38:43.118Z,5.39
2023-02-11T05:39:43.112Z,5.38
2023-02-11T05:40:43.116Z,5.38
2023-02-11T05:41:43.103Z,5.38
2023-02-11T05:42:43.057Z,5.36
2023-02-11T05:43:43.085Z,5.39
2023-02-11T05:44:43.048Z,5.38
2023-02-11T05:45:43.081Z,5.39
2023-02-11T05:46:43.159Z,5.39
2023-02-11T05:47:43.009Z,5.40
2023-02-11T05:48:43.070Z,5.40
2023-02-11T05:49:43.007Z,5.42
2023-02-11T05:50:43.004Z,5.39
2023-02-11T05:51:43.016Z,5.39
2023-02-11T05:52:42.989Z,5.39
2023-02-11T05:53:42.993Z,5.38
2023-02-11T05:54:42.904Z,5.39
2023-02-11T05:55:43.054Z,5.38
2023-02-11T05:56:44.794Z,5.38
2023-02-11T05:57:42.930Z,5.39
2023-02-11T05:58:42.933Z,5.40
2023-02-11T05:59:42.920Z,5.39
2023-02-11T06:00:42.879Z,5.39
2023-02-11T06:01:42.905Z,5.38
2023-02-11T06:02:42.844Z,5.39
2023-02-11T06:03:42.872Z,5.40
2023-02-11T06:04:42.790Z,5.40
2023-02-11T06:05:42.796Z,5.40
2023-02-11T06:06:42.878Z,5.42
2023-02-11T06:07:42.825Z,5.43
2023-02-11T06:08:42.843Z,5.45
2023-02-11T06:09:42.819Z,5.43
2023-02-11T06:10:42.731Z,5.46
2023-02-11T06:11:42.734Z,5.43
2023-02-11T06:12:42.731Z,5.45
2023-02-11T06:13:42.703Z,5.48
2023-02-11T06:14:42.691Z,5.48
2023-02-11T06:15:42.791Z,5.49
2023-02-11T06:16:42.662Z,5.51
2023-02-11T06:17:42.693Z,5.51
2023-02-11T06:18:42.665Z,5.54
2023-02-11T06:19:42.655Z,5.56
2023-02-11T06:20:42.638Z,5.53
2023-02-11T06:21:44.410Z,5.54
2023-02-11T06:22:42.607Z,5.56
2023-02-11T06:23:42.604Z,5.58
2023-02-11T06:25:00.260Z,5.58
2023-02-11T06:25:43.596Z,5.60
2023-02-11T06:26:42.566Z,5.61
2023-02-11T06:27:42.576Z,5.61
2023-02-11T06:28:42.586Z,5.63
2023-02-11T06:29:42.562Z,5.64
2023-02-11T06:30:42.687Z,5.61
2023-02-11T06:31:42.717Z,5.63
2023-02-11T06:32:44.885Z,5.60
2023-02-11T06:33:42.488Z,5.61
2023-02-11T06:34:42.525Z,5.63
2023-02-11T06:35:42.560Z,5.63
2023-02-11T06:36:42.471Z,5.63
2023-02-11T06:37:42.563Z,5.64
2023-02-11T06:38:42.504Z,5.65
2023-02-11T06:39:42.453Z,5.65
2023-02-11T06:40:42.425Z,5.67
2023-02-11T06:41:42.410Z,5.71
2023-02-11T06:42:42.449Z,5.68
2023-02-11T06:43:42.421Z,5.68
2023-02-11T06:44:42.492Z,5.71
2023-02-11T06:45:42.396Z,5.71
2023-02-11T06:46:42.404Z,5.71
2023-02-11T06:47:42.359Z,5.72
2023-02-11T06:48:44.753Z,5.72
2023-02-11T06:49:42.417Z,5.72
2023-02-11T06:50:42.339Z,5.72
2023-02-11T06:51:42.332Z,5.72
2023-02-11T06:52:42.324Z,5.75
2023-02-11T06:53:42.322Z,5.75
2023-02-11T06:54:42.289Z,5.76
2023-02-11T06:55:42.279Z,5.76
2023-02-11T06:56:42.271Z,5.79
2023-02-11T06:57:42.267Z,5.79
2023-02-11T06:58:42.276Z,5.79
2023-02-11T06:59:42.251Z,5.82
2023-02-11T07:00:42.241Z,5.82
2023-02-11T07:01:42.280Z,5.83
2023-02-11T07:02:42.250Z,5.85
2023-02-11T07:03:42.231Z,5.86
2023-02-11T07:04:42.203Z,5.85
2023-02-11T07:05:42.207Z,5.85
2023-02-11T07:06:42.170Z,5.89
2023-02-11T07:07:42.162Z,5.89
2023-02-11T07:08:42.145Z,5.86
2023-02-11T07:09:42.156Z,5.86
2023-02-11T07:10:42.132Z,5.85
2023-02-11T07:11:42.239Z,5.89
2023-02-11T07:12:42.130Z,5.91
2023-02-11T07:13:42.091Z,5.90
2023-02-11T07:14:42.107Z,5.90
2023-02-11T07:15:42.109Z,5.89
2023-02-11T07:16:42.098Z,5.91
2023-02-11T07:17:42.090Z,5.91
2023-02-11T07:18:42.068Z,5.93
2023-02-11T07:19:42.035Z,5.94
2023-02-11T07:20:42.075Z,5.94
2023-02-11T07:21:42.061Z,5.93
2023-02-11T07:22:42.027Z,5.96
2023-02-11T07:23:42.050Z,5.96
2023-02-11T07:24:41.996Z,5.96
2023-02-11T07:25:41.975Z,5.97
2023-02-11T07:26:41.999Z,5.97
2023-02-11T07:27:41.960Z,5.97
2023-02-11T07:28:41.986Z,5.97
2023-02-11T07:29:41.946Z,5.99
2023-02-11T07:30:41.974Z,5.97
2023-02-11T07:31:42.037Z,6.00
2023-02-11T07:32:41.918Z,5.99
2023-02-11T07:33:41.934Z,6.01
2023-02-11T07:34:41.961Z,6.03
2023-02-11T07:35:42.757Z,6.03
2023-02-11T07:36:41.855Z,6.04
2023-02-11T07:37:41.885Z,6.04
2023-02-11T07:38:41.863Z,6.06
2023-02-11T07:39:41.856Z,6.08
2023-02-11T07:40:41.979Z,6.09
2023-02-11T07:41:41.822Z,6.09
2023-02-11T07:42:41.854Z,6.09
2023-02-11T07:43:41.814Z,6.11
2023-02-11T07:44:41.803Z,6.17
2023-02-11T07:45:41.803Z,6.15
2023-02-11T07:46:41.817Z,6.15
2023-02-11T07:47:41.799Z,6.14
2023-02-11T07:48:41.749Z,6.12
2023-02-11T07:49:41.730Z,6.14
2023-02-11T07:50:41.746Z,6.14
2023-02-11T07:51:41.755Z,6.17
2023-02-11T07:52:41.697Z,6.17
2023-02-11T07:53:41.694Z,6.17
2023-02-11T07:54:41.692Z,6.18
2023-02-11T07:55:41.693Z,6.21
2023-02-11T07:56:41.702Z,6.18
2023-02-11T07:57:41.661Z,6.21
2023-02-11T07:58:41.671Z,6.21
2023-02-11T07:59:41.636Z,6.21
2023-02-11T08:00:41.769Z,6.19
2023-02-11T08:01:41.786Z,6.19
2023-02-11T08:02:41.605Z,6.21
2023-02-11T08:03:41.606Z,6.21
2023-02-11T08:04:41.620Z,6.19
2023-02-11T08:05:41.660Z,6.21
2023-02-11T08:06:41.597Z,6.27
2023-02-11T08:07:41.549Z,6.25
2023-02-11T08:08:41.536Z,6.25
2023-02-11T08:09:41.661Z,6.28
2023-02-11T08:10:41.590Z,6.27
2023-02-11T08:11:41.559Z,6.30
2023-02-11T08:12:41.495Z,6.30
2023-02-11T08:13:41.498Z,6.31
2023-02-11T08:14:41.524Z,6.34
2023-02-11T08:15:41.480Z,6.34
2023-02-11T08:16:41.543Z,6.38
2023-02-11T08:17:41.476Z,6.37
2023-02-11T08:18:41.454Z,6.36
2023-02-11T08:19:41.463Z,6.40
2023-02-11T08:20:41.418Z,6.40
2023-02-11T08:21:41.452Z,6.41
2023-02-11T08:22:41.395Z,6.43
2023-02-11T08:23:41.409Z,6.41
2023-02-11T08:24:41.396Z,6.41
2023-02-11T08:25:41.412Z,6.44
2023-02-11T08:26:41.459Z,6.44
2023-02-11T08:27:41.372Z,6.44
2023-02-11T08:28:41.416Z,6.46
2023-02-11T08:29:41.417Z,6.46
2023-02-11T08:30:41.365Z,6.46
2023-02-11T08:31:41.448Z,6.48
2023-02-11T08:32:41.305Z,6.46
2023-02-11T08:33:41.336Z,6.48
2023-02-11T08:34:41.286Z,6.48
2023-02-11T08:35:41.307Z,6.51
2023-02-11T08:36:41.277Z,6.54
2023-02-11T08:37:41.275Z,6.52
2023-02-11T08:38:41.267Z,6.52
2023-02-11T08:39:41.228Z,6.51
2023-02-11T08:40:41.226Z,6.52
2023-02-11T08:41:41.220Z,6.52
2023-02-11T08:42:41.220Z,6.52
2023-02-11T08:43:41.248Z,6.54
2023-02-11T08:44:41.197Z,6.55
2023-02-11T08:45:41.214Z,6.55
2023-02-11T08:46:41.163Z,6.54
2023-02-11T08:47:41.176Z,6.52
2023-02-11T08:48:41.153Z,6.49
2023-02-11T08:49:41.139Z,6.54
2023-02-11T08:50:41.131Z,6.54
2023-02-11T08:51:41.101Z,6.55
2023-02-11T08:52:41.128Z,6.54
2023-02-11T08:53:41.084Z,6.55
2023-02-11T08:54:41.102Z,6.55
2023-02-11T08:55:41.085Z,6.56
2023-02-11T08:56:41.066Z,6.54
2023-02-11T08:57:41.070Z,6.56
2023-02-11T08:58:41.053Z,6.58
2023-02-11T08:59:41.077Z,6.59
2023-02-11T09:00:41.039Z,6.61
2023-02-11T09:01:41.141Z,6.61
2023-02-11T09:02:41.045Z,6.64
2023-02-11T09:03:41.013Z,6.64
2023-02-11T09:04:40.984Z,6.64
2023-02-11T09:05:40.980Z,6.61
2023-02-11T09:06:40.952Z,6.64
2023-02-11T09:07:40.994Z,6.69
2023-02-11T09:08:40.943Z,6.66
2023-02-11T09:09:40.932Z,6.66
2023-02-11T09:10:40.922Z,6.66
2023-02-11T09:11:40.911Z,6.66
2023-02-11T09:12:40.932Z,6.66
2023-02-11T09:13:40.882Z,6.69
2023-02-11T09:14:40.888Z,6.66
2023-02-11T09:15:40.871Z,6.67
2023-02-11T09:16:40.924Z,6.66
2023-02-11T09:17:40.974Z,6.67
2023-02-11T09:18:40.842Z,6.69
2023-02-11T09:19:40.825Z,6.66
2023-02-11T09:20:40.823Z,6.69
2023-02-11T09:21:40.932Z,6.64
2023-02-11T09:22:40.844Z,6.69
2023-02-11T09:23:40.785Z,6.69
2023-02-11T09:24:40.841Z,6.70
2023-02-11T09:25:40.767Z,6.70
2023-02-11T09:26:40.755Z,6.70
2023-02-11T09:27:40.890Z,6.71
2023-02-11T09:28:40.752Z,6.73
2023-02-11T09:30:36.256Z,6.73
2023-02-11T09:31:36.467Z,6.76
2023-02-11T09:32:36.494Z,6.73
2023-02-11T09:33:36.364Z,6.74
2023-02-11T09:34:36.427Z,6.74
2023-02-11T09:35:36.348Z,6.76
2023-02-11T09:36:36.402Z,6.79
2023-02-11T09:37:37.434Z,6.81
2023-02-11T09:38:36.346Z,6.81
2023-02-11T09:39:36.346Z,6.81
2023-02-11T09:40:36.298Z,6.85
2023-02-11T09:41:36.296Z,6.85
2023-02-11T09:42:36.322Z,6.84
2023-02-11T09:43:36.265Z,6.88
2023-02-11T09:44:36.266Z,6.88
2023-02-11T09:45:36.277Z,6.88
2023-02-11T09:46:36.322Z,6.89
2023-02-11T09:47:36.221Z,6.89
2023-02-11T09:48:36.195Z,6.89
2023-02-11T09:49:36.191Z,6.87
2023-02-11T09:50:36.270Z,6.89
2023-02-11T09:51:36.225Z,6.89
2023-02-11T09:52:36.166Z,6.89
2023-02-11T09:53:36.191Z,6.89
2023-02-11T09:54:36.139Z,6.88
2023-02-11T09:55:36.176Z,6.87
2023-02-11T09:56:36.118Z,6.89
2023-02-11T09:57:36.141Z,6.91
2023-02-11T09:58:36.159Z,6.92
2023-02-11T09:59:36.162Z,6.92
2023-02-11T10:00:36.117Z,6.95
2023-02-11T10:01:36.430Z,6.97
2023-02-11T10:02:36.060Z,6.95
2023-02-11T10:03:36.050Z,6.97
2023-02-11T10:04:36.115Z,6.95
2023-02-11T10:05:36.044Z,6.95
2023-02-11T10:06:36.021Z,6.99
2023-02-11T10:07:36.030Z,6.98
2023-02-11T10:08:36.009Z,6.98
2023-02-11T10:09:36.013Z,6.99
2023-02-11T10:10:36.002Z,7.02
2023-02-11T10:11:35.967Z,6.99
2023-02-11T10:12:35.962Z,6.99
2023-02-11T10:13:35.944Z,7.03
2023-02-11T10:14:35.933Z,6.98
2023-02-11T10:15:35.998Z,7.03
2023-02-11T10:16:35.915Z,7.03
2023-02-11T10:17:35.912Z,7.05
2023-02-11T10:18:35.895Z,7.06
2023-02-11T10:19:35.943Z,7.09
2023-02-11T10:20:35.905Z,7.07
2023-02-11T10:21:35.897Z,7.07
2023-02-11T10:22:35.848Z,7.05
2023-02-11T10:23:35.883Z,7.03
2023-02-11T10:24:35.848Z,7.02
2023-02-11T10:25:35.834Z,6.99
2023-02-11T10:26:35.826Z,6.98
2023-02-11T10:27:35.884Z,6.98
2023-02-11T10:28:35.912Z,6.97
2023-02-11T10:29:35.785Z,6.99
2023-02-11T10:30:35.790Z,6.99
2023-02-11T10:31:35.921Z,6.95
2023-02-11T10:32:35.782Z,6.91
2023-02-11T10:33:35.762Z,6.95
2023-02-11T10:34:35.809Z,6.98
2023-02-11T10:35:35.726Z,6.97
2023-02-11T10:36:35.698Z,6.97
2023-02-11T10:37:35.740Z,6.95
2023-02-11T10:38:35.685Z,6.97
2023-02-11T10:39:35.665Z,6.98
2023-02-11T10:40:35.678Z,6.99
2023-02-11T10:41:35.648Z,6.97
2023-02-11T10:42:35.684Z,6.97
2023-02-11T10:43:35.640Z,6.97
2023-02-11T10:44:35.629Z,7.02
2023-02-11T10:45:35.628Z,6.99
2023-02-11T10:46:35.653Z,6.99
2023-02-11T10:47:35.767Z,6.98
2023-02-11T10:48:35.596Z,6.99
2023-02-11T10:49:35.599Z,6.97
2023-02-11T10:50:35.668Z,7.02
2023-02-11T10:51:35.551Z,7.02
2023-02-11T10:52:35.592Z,7.02
2023-02-11T10:53:35.675Z,6.99
2023-02-11T10:54:35.584Z,7.02
2023-02-11T10:55:35.532Z,7.05
2023-02-11T10:56:35.675Z,7.02
2023-02-11T10:57:35.480Z,7.02
2023-02-11T10:58:35.473Z,7.05
2023-02-11T10:59:35.521Z,7.03
2023-02-11T11:00:35.534Z,7.09
2023-02-11T11:01:35.618Z,7.03
2023-02-11T11:02:35.449Z,7.07
2023-02-11T11:03:35.455Z,7.06
2023-02-11T11:04:35.466Z,7.06
2023-02-11T11:05:35.437Z,7.10
2023-02-11T11:06:35.401Z,7.09
2023-02-11T11:07:35.374Z,7.12
2023-02-11T11:08:35.390Z,7.12
2023-02-11T11:09:35.393Z,7.10
2023-02-11T11:10:35.378Z,7.10
2023-02-11T11:11:35.353Z,7.10
2023-02-11T11:12:35.341Z,7.12
2023-02-11T11:13:35.321Z,7.12
2023-02-11T11:14:35.346Z,7.10
2023-02-11T11:15:35.373Z,7.09
2023-02-11T11:16:35.293Z,7.12
2023-02-11T11:17:35.263Z,7.13
2023-02-11T11:18:35.308Z,7.12
2023-02-11T11:19:35.284Z,7.10
2023-02-11T11:20:35.246Z,7.10
2023-02-11T11:21:35.293Z,7.10
2023-02-11T11:22:35.311Z,7.09
2023-02-11T11:23:35.247Z,7.09
2023-02-11T11:24:35.250Z,7.06
2023-02-11T11:25:35.203Z,7.06
2023-02-11T11:26:35.184Z,7.06
2023-02-11T11:27:35.249Z,7.06
2023-02-11T11:28:35.266Z,7.09
2023-02-11T11:29:35.176Z,7.09
2023-02-11T11:30:35.206Z,7.10
2023-02-11T11:31:35.368Z,7.09
2023-02-11T11:32:35.141Z,7.09
2023-02-11T11:33:35.113Z,7.12
2023-02-11T11:34:35.130Z,7.10
2023-02-11T11:35:35.107Z,7.10
2023-02-11T11:36:35.191Z,7.12
2023-02-11T11:37:35.122Z,7.12
2023-02-11T11:38:35.065Z,7.07
2023-02-11T11:39:35.069Z,7.12
2023-02-11T11:40:35.054Z,7.13
2023-02-11T11:41:35.056Z,7.15
2023-02-11T11:42:35.044Z,7.15
2023-02-11T11:43:35.053Z,7.16
2023-02-11T11:44:35.003Z,7.20
2023-02-11T11:45:35.026Z,7.17
2023-02-11T11:46:34.997Z,7.17
2023-02-11T11:47:34.966Z,7.16
2023-02-11T11:48:34.956Z,7.17
2023-02-11T11:49:34.971Z,7.21
2023-02-11T11:50:34.990Z,7.21
2023-02-11T11:51:34.931Z,7.23
2023-02-11T11:52:34.900Z,7.25
2023-02-11T11:53:34.909Z,7.25
2023-02-11T11:54:34.933Z,7.25
2023-02-11T11:55:34.879Z,7.27
2023-02-11T11:56:34.896Z,7.28
2023-02-11T11:57:34.923Z,7.30
2023-02-11T11:58:34.863Z,7.30
2023-02-11T11:59:34.835Z,7.34
2023-02-11T12:00:34.854Z,7.35
2023-02-11T12:01:34.848Z,7.32
2023-02-11T12:02:34.843Z,7.32
2023-02-11T12:03:34.814Z,7.35
2023-02-11T12:04:34.795Z,7.37
2023-02-11T12:05:34.818Z,7.37
2023-02-11T12:06:34.778Z,7.37
2023-02-11T12:07:34.762Z,7.39
2023-02-11T12:08:34.773Z,7.37
2023-02-11T12:09:34.723Z,7.37
2023-02-11T12:10:34.713Z,7.42
2023-02-11T12:11:34.744Z,7.46
2023-02-11T12:12:34.763Z,7.45
2023-02-11T12:13:34.733Z,7.48
2023-02-11T12:14:34.731Z,7.48
2023-02-11T12:15:34.692Z,7.46
2023-02-11T12:16:34.771Z,7.46
2023-02-11T12:17:34.657Z,7.49
2023-02-11T12:18:34.672Z,7.52
2023-02-11T12:19:34.681Z,7.50
2023-02-11T12:20:34.607Z,7.49
2023-02-11T12:21:34.618Z,7.50
2023-02-11T12:22:34.719Z,7.49
2023-02-11T12:23:34.599Z,7.52
2023-02-11T12:24:34.576Z,7.53
2023-02-11T12:25:34.555Z,7.57
2023-02-11T12:26:34.578Z,7.57
2023-02-11T12:27:34.647Z,7.57
2023-02-11T12:28:34.625Z,7.55
2023-02-11T12:29:34.526Z,7.58
2023-02-11T12:30:34.567Z,7.60
2023-02-11T12:31:34.559Z,7.60
2023-02-11T12:32:34.497Z,7.58
2023-02-11T12:33:34.489Z,7.60
2023-02-11T12:34:34.510Z,7.57
2023-02-11T12:35:34.529Z,7.57
2023-02-11T12:36:34.448Z,7.58
2023-02-11T12:37:34.459Z,7.58
2023-02-11T12:38:34.460Z,7.57
2023-02-11T12:39:34.474Z,7.57
2023-02-11T12:40:34.420Z,7.55
2023-02-11T12:41:34.436Z,7.58
2023-02-11T12:42:34.392Z,7.60
2023-02-11T12:43:34.412Z,7.55
2023-02-11T12:44:34.390Z,7.55
2023-02-11T12:45:34.402Z,7.57
2023-02-11T12:46:34.350Z,7.58
2023-02-11T12:47:34.340Z,7.60
2023-02-11T12:48:35.840Z,7.58
2023-02-11T12:49:34.366Z,7.61
2023-02-11T12:50:34.334Z,7.61
2023-02-11T12:51:34.282Z,7.63
2023-02-11T12:52:34.323Z,7.68
2023-02-11T12:53:34.325Z,7.71
2023-02-11T12:54:34.304Z,7.68
2023-02-11T12:55:34.325Z,7.67
2023-02-11T12:56:34.262Z,7.64
2023-02-11T12:57:34.273Z,7.61
2023-02-11T12:58:44.525Z,7.64
2023-02-11T12:59:35.232Z,7.67
2023-02-11T13:00:34.223Z,7.71
2023-02-11T13:01:34.322Z,7.74
2023-02-11T13:02:34.287Z,7.74
2023-02-11T13:03:34.251Z,7.71
2023-02-11T13:04:34.191Z,7.71
2023-02-11T13:05:34.186Z,7.69
2023-02-11T13:06:34.191Z,7.71
2023-02-11T13:07:34.248Z,7.74
2023-02-11T13:08:34.167Z,7.72
2023-02-11T13:09:34.151Z,7.74
2023-02-11T13:10:34.136Z,7.74
2023-02-11T13:11:34.130Z,7.72
2023-02-11T13:12:34.093Z,7.71
2023-02-11T13:13:34.214Z,7.74
2023-02-11T13:14:34.077Z,7.69
2023-02-11T13:15:34.096Z,7.71
2023-02-11T13:16:34.183Z,7.74
2023-02-11T13:17:34.117Z,7.74
2023-02-11T13:18:34.066Z,7.77
2023-02-11T13:19:34.071Z,7.79